createdAt,value
2023-02-22T21:50:21.648Z,19.18
2023-02-22T21:52:27.869Z,19.17
2023-02-22T21:54:31.993Z,16.92
2023-02-22T21:56:40.299Z,14.60
2023-02-22T21:58:44.452Z,14.79
2023-02-22T22:00:48.668Z,16.88
2023-02-22T22:02:52.724Z,17.82
2023-02-22T22:04:57.261Z,18.27
2023-02-22T22:07:03.832Z,18.63
2023-02-22T22:09:18.139Z,18.69
2023-02-22T22:11:22.434Z,18.75
2023-02-22T22:13:28.068Z,18.79
2023-02-22T22:15:36.742Z,18.80
2023-02-22T22:17:42.098Z,18.85
2023-02-22T22:19:48.787Z,18.89
2023-02-22T22:21:54.043Z,18.91
2023-02-22T22:23:59.406Z,18.91
2023-02-22T22:26:03.402Z,18.92
2023-02-22T22:28:07.900Z,18.92
2023-02-22T22:30:13.376Z,18.93
2023-02-22T22:32:20.658Z,18.95
2023-02-22T22:34:25.101Z,18.95
2023-02-22T22:36:29.116Z,18.95
2023-02-22T22:38:33.151Z,18.95
2023-02-22T22:40:39.550Z,18.96
2023-02-22T22:42:43.530Z,18.97
2023-02-22T22:44:50.311Z,18.98
2023-02-22T22:46:54.840Z,19.00
2023-02-22T22:49:00.419Z,18.98
2023-02-22T22:51:06.545Z,18.98
2023-02-22T22:53:10.811Z,18.98
2023-02-22T22:55:15.223Z,18.98
2023-02-22T22:57:23.344Z,18.98
2023-02-22T22:59:28.094Z,18.99
2023-02-22T23:01:34.201Z,19.00
2023-02-22T23:03:38.326Z,19.00
2023-02-22T23:05:43.233Z,19.00
2023-02-22T23:07:47.200Z,19.01
2023-02-22T23:09:51.173Z,19.01
2023-02-22T23:11:57.599Z,19.00
2023-02-22T23:14:03.724Z,19.02
2023-02-22T23:16:11.927Z,19.02
2023-02-22T23:18:19.617Z,19.01
2023-02-22T23:20:26.198Z,19.01
2023-02-22T23:22:30.190Z,19.00
2023-02-22T23:24:36.048Z,19.02
2023-02-22T23:26:40.054Z,19.02
2023-02-22T23:28:44.013Z,19.02
2023-02-22T23:30:49.404Z,19.03
2023-02-22T23:32:54.366Z,19.02
2023-02-22T23:34:58.334Z,19.01
2023-02-22T23:37:03.446Z,19.02
2023-02-22T23:39:07.663Z,19.02
2023-02-22T23:41:13.759Z,19.01
2023-02-22T23:43:18.323Z,19.02
2023-02-22T23:45:25.360Z,19.01
2023-02-22T23:47:31.660Z,19.01
2023-02-22T23:49:38.321Z,19.01
2023-02-22T23:51:44.468Z,19.01
2023-02-22T23:53:49.450Z,19.00
2023-02-22T23:55:53.546Z,19.01
2023-02-22T23:57:59.399Z,19.00
